createdAt,value
2023-02-27T00:02:58.401Z,-0.83
2023-02-27T00:06:00.710Z,-0.88
2023-02-27T00:09:03.781Z,-0.98
2023-02-27T00:12:06.270Z,-0.87
2023-02-27T00:15:11.525Z,-0.92
2023-02-27T00:18:13.794Z,-0.92
2023-02-27T00:21:15.987Z,-0.88
2023-02-27T00:24:18.255Z,-0.82
2023-02-27T00:27:20.439Z,-0.89
2023-02-27T00:30:22.666Z,-0.94
2023-02-27T00:33:24.839Z,-0.98
2023-02-27T00:36:27.019Z,-1.04
2023-02-27T00:39:29.308Z,-1.08
2023-02-27T00:42:32.172Z,-1.04
2023-02-27T00:45:34.350Z,-1.01
2023-02-27T00:48:36.792Z,-1.05
2023-02-27T00:51:39.848Z,-1.08
2023-02-27T00:54:42.135Z,-1.15
2023-02-27T00:57:44.422Z,-1.01
2023-02-27T01:00:46.646Z,-1.12
2023-02-27T01:03:48.890Z,-1.15
2023-02-27T01:06:51.441Z,-1.25
2023-02-27T01:09:53.663Z,-1.17
2023-02-27T01:12:55.789Z,-1.21
2023-02-27T01:15:58.071Z,-1.22
2023-02-27T01:19:00.276Z,-1.30
2023-02-27T01:22:02.533Z,-1.41
2023-02-27T01:25:05.057Z,-1.43
2023-02-27T01:28:07.238Z,-1.44
2023-02-27T01:31:09.456Z,-1.44
2023-02-27T01:34:11.703Z,-1.52
2023-02-27T01:37:14.632Z,-1.50
2023-02-27T01:40:16.830Z,-1.48
2023-02-27T01:43:21.225Z,-1.53
2023-02-27T01:46:24.063Z,-1.57
2023-02-27T01:49:32.137Z,-1.44
2023-02-27T01:52:34.869Z,-1.41
2023-02-27T01:55:39.271Z,-1.44
2023-02-27T01:58:43.151Z,-1.33
2023-02-27T02:01:45.642Z,-1.35
2023-02-27T02:04:48.473Z,-1.33
2023-02-27T02:07:50.835Z,-1.36
2023-02-27T02:10:53.800Z,-1.33
2023-02-27T02:13:59.483Z,-1.30
2023-02-27T02:17:30.733Z,-1.28
2023-02-27T02:20:52.424Z,-1.30
2023-02-27T02:24:03.199Z,-1.28
2023-02-27T02:27:08.411Z,-1.28
2023-02-27T02:30:29.844Z,-1.26
2023-02-27T02:33:50.716Z,-1.27
2023-02-27T02:37:14.137Z,-1.19
2023-02-27T02:40:31.663Z,-1.16
2023-02-27T02:43:48.801Z,-1.16
2023-02-27T02:47:08.348Z,-1.16
2023-02-27T02:50:14.239Z,-1.10
2023-02-27T02:53:37.685Z,-1.14
2023-02-27T02:56:46.602Z,-1.17
2023-02-27T02:59:55.453Z,-1.15
2023-02-27T03:03:12.374Z,-1.17
2023-02-27T03:06:18.798Z,-1.12
2023-02-27T03:09:31.782Z,-1.11
2023-02-27T03:12:34.118Z,-1.07
2023-02-27T03:15:49.556Z,-1.09
2023-02-27T03:19:01.726Z,-1.12
2023-02-27T03:22:13.741Z,-1.12
2023-02-27T03:25:16.076Z,-1.13
2023-02-27T03:28:22.187Z,-1.11
2023-02-27T03:31:50.966Z,-1.10
2023-02-27T03:34:53.269Z,-1.11
2023-02-27T03:38:01.930Z,-1.11
2023-02-27T03:41:30.299Z,-1.07
2023-02-27T03:44:40.728Z,-1.11
2023-02-27T03:47:42.954Z,-1.07
2023-02-27T03:50:45.320Z,-1.08
2023-02-27T03:54:09.480Z,-1.10
2023-02-27T03:57:15.216Z,-1.08
2023-02-27T04:00:22.671Z,-1.05
2023-02-27T04:03:25.337Z,-1.03
2023-02-27T04:06:56.779Z,-0.99
2023-02-27T04:10:21.440Z,-0.99
2023-02-27T04:13:26.716Z,-0.93
2023-02-27T04:16:51.268Z,-0.92
2023-02-27T04:20:14.834Z,-0.97
2023-02-27T04:23:41.030Z,-0.95
2023-02-27T04:26:48.522Z,-0.89
2023-02-27T04:29:58.213Z,-0.93
2023-02-27T04:33:10.632Z,-0.99
2023-02-27T04:36:36.413Z,-1.01
2023-02-27T04:40:02.808Z,-0.95
2023-02-27T04:43:07.707Z,-0.99
2023-02-27T04:46:13.267Z,-1.01
2023-02-27T04:49:19.497Z,-0.92
2023-02-27T04:52:31.293Z,-1.01
2023-02-27T04:55:37.296Z,-0.98
2023-02-27T04:58:50.652Z,-1.01
2023-02-27T05:02:24.933Z,-1.04
2023-02-27T05:05:30.663Z,-1.07
2023-02-27T05:08:43.788Z,-1.06
2023-02-27T05:12:02.246Z,-1.05
2023-02-27T05:15:13.094Z,-0.99
2023-02-27T05:18:18.498Z,-1.02
2023-02-27T05:21:29.643Z,-1.06
2023-02-27T05:24:49.865Z,-1.06
2023-02-27T05:28:02.238Z,-1.02
2023-02-27T05:31:04.512Z,-1.13
2023-02-27T05:34:12.384Z,-1.17
2023-02-27T05:37:30.863Z,-1.23
2023-02-27T05:40:38.204Z,-1.20
2023-02-27T05:43:51.099Z,-1.16
2023-02-27T05:46:57.032Z,-1.27
2023-02-27T05:50:06.267Z,-1.30
2023-02-27T05:53:11.835Z,-1.26
2023-02-27T05:56:16.651Z,-1.36
2023-02-27T05:59:24.246Z,-1.38
2023-02-27T06:02:26.977Z,-1.33
2023-02-27T06:05:29.419Z,-1.43
2023-02-27T06:08:32.122Z,-1.32
2023-02-27T06:11:34.313Z,-1.38
2023-02-27T06:14:36.438Z,-1.35
2023-02-27T06:17:39.200Z,-1.36
2023-02-27T06:20:42.168Z,-1.40
2023-02-27T06:23:44.386Z,-1.29
2023-02-27T06:26:47.266Z,-1.24
2023-02-27T06:29:49.483Z,-1.22
2023-02-27T06:32:51.668Z,-1.14
2023-02-27T06:35:53.930Z,-1.13
2023-02-27T06:38:56.121Z,-1.02
2023-02-27T06:41:58.342Z,-1.05
2023-02-27T06:45:00.569Z,-0.91
2023-02-27T06:48:02.917Z,-0.84
2023-02-27T06:51:05.275Z,-0.88
2023-02-27T06:54:08.162Z,-0.81
2023-02-27T06:57:10.388Z,-0.68
2023-02-27T07:00:13.281Z,-0.72
2023-02-27T07:03:15.495Z,-0.53
2023-02-27T07:06:17.735Z,-0.51
2023-02-27T07:09:19.938Z,-0.57
2023-02-27T07:12:22.391Z,-0.45
2023-02-27T07:15:24.732Z,-0.39
2023-02-27T07:18:27.015Z,-0.36
2023-02-27T07:21:29.195Z,-0.37
2023-02-27T07:24:31.406Z,-0.20
2023-02-27T07:27:33.980Z,-0.22
2023-02-27T07:30:36.194Z,-0.25
2023-02-27T07:33:38.459Z,-0.26
2023-02-27T07:36:40.752Z,-0.03
2023-02-27T07:39:42.934Z,-0.11
2023-02-27T07:42:48.185Z,-0.15
2023-02-27T07:45:51.746Z,0.10
2023-02-27T07:48:54.510Z,0.26
2023-02-27T07:51:56.730Z,0.33
2023-02-27T07:54:58.888Z,0.27
2023-02-27T07:58:01.108Z,0.33
2023-02-27T08:01:03.269Z,0.40
2023-02-27T08:04:05.572Z,0.47
2023-02-27T08:07:08.209Z,0.51
2023-02-27T08:10:11.230Z,0.74
2023-02-27T08:13:14.340Z,0.86
2023-02-27T08:16:16.613Z,1.06
2023-02-27T08:19:18.820Z,1.11
2023-02-27T08:22:21.541Z,0.57
2023-02-27T08:25:23.950Z,1.11
2023-02-27T08:28:26.623Z,1.33
2023-02-27T08:31:28.992Z,1.03
2023-02-27T08:34:31.264Z,0.99
2023-02-27T08:37:33.497Z,1.01
2023-02-27T08:40:35.760Z,1.27
2023-02-27T08:43:37.941Z,0.93
2023-02-27T08:46:40.194Z,0.97
2023-02-27T08:49:42.367Z,1.15
2023-02-27T08:52:44.531Z,1.30
2023-02-27T08:55:51.231Z,1.23
2023-02-27T08:58:53.927Z,1.39
2023-02-27T09:01:56.096Z,1.41
2023-02-27T09:04:59.110Z,1.39
2023-02-27T09:08:02.259Z,1.23
2023-02-27T09:11:05.183Z,1.52
2023-02-27T09:14:07.854Z,1.50
2023-02-27T09:17:10.058Z,1.48
2023-02-27T09:20:12.736Z,1.49
2023-02-27T09:23:15.003Z,1.61
2023-02-27T09:26:17.554Z,1.42
2023-02-27T09:29:19.807Z,1.43
2023-02-27T09:32:23.280Z,1.43
2023-02-27T09:35:25.736Z,1.63
2023-02-27T09:38:27.924Z,1.74
2023-02-27T09:41:37.430Z,1.63
2023-02-27T09:44:47.992Z,1.60
2023-02-27T09:47:54.334Z,1.76
2023-02-27T09:50:57.450Z,1.87
2023-02-27T09:54:01.576Z,1.77
2023-02-27T09:57:05.577Z,1.76
2023-02-27T10:00:23.790Z,2.15
2023-02-27T10:03:28.661Z,1.77
2023-02-27T10:06:40.996Z,1.71
2023-02-27T10:09:57.050Z,1.88
2023-02-27T10:13:13.944Z,2.06
2023-02-27T10:16:20.171Z,2.10
2023-02-27T10:19:31.208Z,2.08
2023-02-27T10:22:42.047Z,2.34
2023-02-27T10:25:46.569Z,2.18
2023-02-27T10:28:49.231Z,2.14
2023-02-27T10:32:01.353Z,2.37
2023-02-27T10:35:33.214Z,2.25
2023-02-27T10:38:37.605Z,2.28
2023-02-27T10:41:40.771Z,2.26
2023-02-27T10:44:43.048Z,2.44
2023-02-27T10:47:45.244Z,2.41
2023-02-27T10:50:52.341Z,2.37
2023-02-27T10:54:19.623Z,2.37
2023-02-27T10:57:26.680Z,2.42
2023-02-27T11:00:45.485Z,2.74
2023-02-27T11:03:48.843Z,2.85
2023-02-27T11:06:53.523Z,2.63
2023-02-27T11:10:06.332Z,2.74
2023-02-27T11:13:21.624Z,3.10
2023-02-27T11:16:23.815Z,3.38
2023-02-27T11:19:35.042Z,3.27
2023-02-27T11:22:37.263Z,3.16
2023-02-27T11:25:39.501Z,3.14
2023-02-27T11:28:42.077Z,3.12
2023-02-27T11:31:51.371Z,3.07
2023-02-27T11:34:53.650Z,3.30
2023-02-27T11:37:59.336Z,3.53
2023-02-27T11:41:05.871Z,3.52
2023-02-27T11:44:17.585Z,3.45
2023-02-27T11:47:35.653Z,2.93
2023-02-27T11:51:11.442Z,3.24
2023-02-27T11:54:18.920Z,3.06
2023-02-27T11:57:27.043Z,2.90
2023-02-27T12:00:39.153Z,2.98
2023-02-27T12:03:49.569Z,3.02
2023-02-27T12:07:13.868Z,2.86
2023-02-27T12:10:19.695Z,2.91
2023-02-27T12:13:25.083Z,3.01
2023-02-27T12:16:32.944Z,2.98
2023-02-27T12:19:54.029Z,3.31
2023-02-27T12:22:56.446Z,3.07
2023-02-27T12:26:07.255Z,3.04
2023-02-27T12:29:23.787Z,3.07
2023-02-27T12:32:39.373Z,3.05
2023-02-27T12:35:43.215Z,2.97
2023-02-27T12:38:45.440Z,3.37
2023-02-27T12:41:56.949Z,3.26
2023-02-27T12:45:37.858Z,3.34
2023-02-27T12:48:39.889Z,3.28
2023-02-27T12:51:42.809Z,3.57
2023-02-27T12:55:02.039Z,3.46
2023-02-27T12:58:06.900Z,3.69
2023-02-27T13:01:18.357Z,3.65
2023-02-27T13:04:25.061Z,3.71
2023-02-27T13:07:34.165Z,4.07
2023-02-27T13:10:45.155Z,4.00
2023-02-27T13:13:59.566Z,3.50
2023-02-27T13:17:39.890Z,3.56
2023-02-27T13:20:50.175Z,3.29
2023-02-27T13:24:24.168Z,3.54
2023-02-27T13:27:32.437Z,3.92
2023-02-27T13:31:03.816Z,3.87
2023-02-27T13:34:08.740Z,3.62
2023-02-27T13:37:11.035Z,3.66
2023-02-27T13:40:31.903Z,3.70
2023-02-27T13:43:49.834Z,3.34
2023-02-27T13:46:52.280Z,3.36
2023-02-27T13:49:55.353Z,3.21
2023-02-27T13:53:09.099Z,3.24
2023-02-27T13:56:22.850Z,3.13
2023-02-27T13:59:31.537Z,3.03
2023-02-27T14:02:46.624Z,3.04
2023-02-27T14:05:58.063Z,3.18
2023-02-27T14:09:14.293Z,3.13
2023-02-27T14:12:44.420Z,3.25
2023-02-27T14:15:47.165Z,3.45
2023-02-27T14:18:56.385Z,3.30
2023-02-27T14:22:24.448Z,3.19
2023-02-27T14:25:32.148Z,3.35
2023-02-27T14:28:38.019Z,3.20
2023-02-27T14:31:40.851Z,3.09
2023-02-27T14:34:43.110Z,3.21
2023-02-27T14:37:45.785Z,3.48
2023-02-27T14:41:05.182Z,3.41
2023-02-27T14:44:24.910Z,3.35
2023-02-27T14:47:32.304Z,3.51
2023-02-27T14:50:37.467Z,3.52
2023-02-27T14:53:39.645Z,3.57
2023-02-27T14:56:46.001Z,3.40
2023-02-27T14:59:50.939Z,3.66
2023-02-27T15:02:53.175Z,3.96
2023-02-27T15:05:59.192Z,3.51
2023-02-27T15:09:01.515Z,3.36
2023-02-27T15:12:04.985Z,3.24
2023-02-27T15:15:09.776Z,3.31
2023-02-27T15:18:14.192Z,3.28
2023-02-27T15:21:17.186Z,3.22
2023-02-27T15:24:25.651Z,3.10
2023-02-27T15:27:28.519Z,3.06
2023-02-27T15:30:31.599Z,3.19
2023-02-27T15:33:33.880Z,3.10
2023-02-27T15:36:36.779Z,3.01
2023-02-27T15:39:39.010Z,3.02
2023-02-27T15:42:41.767Z,2.98
2023-02-27T15:45:44.090Z,3.01
2023-02-27T15:48:46.409Z,2.97
2023-02-27T15:51:55.563Z,3.01
2023-02-27T15:55:05.785Z,2.87
2023-02-27T15:58:24.699Z,2.76
2023-02-27T16:01:32.505Z,2.72
2023-02-27T16:04:35.813Z,2.73
2023-02-27T16:07:40.855Z,2.70
2023-02-27T16:10:45.074Z,2.61
2023-02-27T16:13:48.311Z,2.57
2023-02-27T16:16:55.129Z,2.53
2023-02-27T16:20:01.793Z,2.47
2023-02-27T16:23:15.994Z,2.38
2023-02-27T16:26:31.418Z,2.52
2023-02-27T16:29:36.142Z,2.58
2023-02-27T16:32:44.177Z,2.43
2023-02-27T16:35:46.713Z,2.19
2023-02-27T16:38:49.035Z,2.18
2023-02-27T16:41:55.199Z,2.09
2023-02-27T16:44:57.631Z,1.83
2023-02-27T16:48:00.849Z,1.49
2023-02-27T16:51:03.883Z,1.43
2023-02-27T16:54:11.124Z,1.14
2023-02-27T16:57:13.965Z,0.89
2023-02-27T17:00:17.787Z,0.92
2023-02-27T17:03:19.985Z,0.90
2023-02-27T17:06:22.129Z,0.81
2023-02-27T17:09:27.321Z,0.80
2023-02-27T17:12:29.535Z,0.71
2023-02-27T17:15:31.705Z,0.60
2023-02-27T17:18:34.137Z,0.52
2023-02-27T17:21:36.579Z,0.49
2023-02-27T17:24:39.101Z,0.38
2023-02-27T17:27:44.458Z,-0.07
2023-02-27T17:30:47.433Z,-0.38
2023-02-27T17:33:56.272Z,-0.50
2023-02-27T17:36:58.455Z,-0.34
2023-02-27T17:40:04.145Z,-0.48
2023-02-27T17:43:06.854Z,-0.32
2023-02-27T17:46:10.310Z,-0.51
2023-02-27T17:49:13.483Z,-0.63
2023-02-27T17:52:15.925Z,-0.90
2023-02-27T17:55:19.034Z,-0.76
2023-02-27T17:58:21.296Z,-0.16
2023-02-27T18:01:25.948Z,0.17
2023-02-27T18:04:28.644Z,0.14
2023-02-27T18:07:31.539Z,0.12
2023-02-27T18:10:34.157Z,0.40
2023-02-27T18:13:36.356Z,0.19
2023-02-27T18:16:38.891Z,0.20
2023-02-27T18:19:42.186Z,0.27
2023-02-27T18:22:44.636Z,0.06
2023-02-27T18:25:54.105Z,0.05
2023-02-27T18:29:02.236Z,0.06
2023-02-27T18:32:04.798Z,0.18
2023-02-27T18:35:07.756Z,0.21
2023-02-27T18:38:10.197Z,-0.13
2023-02-27T18:41:13.041Z,0.01
2023-02-27T18:44:15.529Z,-0.11
2023-02-27T18:47:18.019Z,-0.24
2023-02-27T18:50:20.428Z,-0.25
2023-02-27T18:53:22.894Z,-0.47
2023-02-27T18:56:25.873Z,-0.53
2023-02-27T18:59:28.351Z,-0.42
2023-02-27T19:02:30.851Z,-0.52
2023-02-27T19:05:33.095Z,-0.42
2023-02-27T19:08:35.573Z,-0.54
2023-02-27T19:11:38.179Z,-0.45
2023-02-27T19:14:41.191Z,-0.55
2023-02-27T19:17:43.732Z,-0.45
2023-02-27T19:20:46.181Z,-0.55
2023-02-27T19:23:48.647Z,-0.38
2023-02-27T19:26:53.358Z,-0.62
2023-02-27T19:29:56.025Z,-0.54
2023-02-27T19:32:58.819Z,-0.49
2023-02-27T19:36:29.059Z,-0.36
2023-02-27T19:39:32.004Z,-0.33
2023-02-27T19:42:34.569Z,-0.82
2023-02-27T19:45:40.756Z,-0.54
2023-02-27T19:48:44.069Z,-0.76
2023-02-27T19:51:47.577Z,-0.89
2023-02-27T19:54:49.727Z,-0.73
2023-02-27T19:57:52.299Z,-0.83
2023-02-27T20:00:54.859Z,-0.92
2023-02-27T20:03:59.124Z,-0.91
2023-02-27T20:07:01.670Z,-0.98
2023-02-27T20:10:05.705Z,-1.01
2023-02-27T20:13:08.493Z,-1.00
2023-02-27T20:16:13.985Z,-1.17
2023-02-27T20:19:17.951Z,-1.11
2023-02-27T20:22:20.367Z,-1.11
2023-02-27T20:25:22.576Z,-1.03
2023-02-27T20:28:25.688Z,-0.94
2023-02-27T20:31:30.621Z,-0.84
2023-02-27T20:34:33.896Z,-1.01
2023-02-27T20:37:36.273Z,-1.16
2023-02-27T20:40:38.756Z,-1.02
2023-02-27T20:43:44.916Z,-1.09
2023-02-27T20:46:49.283Z,-1.15
2023-02-27T20:49:51.841Z,-1.06
2023-02-27T20:52:55.086Z,-1.15
2023-02-27T20:55:57.540Z,-0.89
2023-02-27T20:59:02.182Z,-0.73
2023-02-27T21:02:07.016Z,-0.84
2023-02-27T21:05:09.430Z,-0.89
2023-02-27T21:08:11.800Z,-0.99
2023-02-27T21:11:19.942Z,-0.86
2023-02-27T21:14:23.466Z,-0.86
2023-02-27T21:17:26.276Z,-1.10
2023-02-27T21:20:28.629Z,-1.33
2023-02-27T21:23:31.093Z,-1.56
2023-02-27T21:26:37.859Z,-1.80
2023-02-27T21:29:40.334Z,-2.05
2023-02-27T21:32:42.625Z,-2.25
2023-02-27T21:35:46.667Z,-2.46
2023-02-27T21:38:49.132Z,-2.38
2023-02-27T21:41:51.737Z,-2.29
2023-02-27T21:44:54.106Z,-2.14
2023-02-27T21:47:56.283Z,-2.31
2023-02-27T21:50:59.498Z,-2.54
2023-02-27T21:54:03.107Z,-2.50
2023-02-27T21:57:05.516Z,-2.32
2023-02-27T22:00:11.159Z,-2.54
2023-02-27T22:03:13.453Z,-2.79
2023-02-27T22:06:15.797Z,-2.50
2023-02-27T22:09:18.287Z,-2.44
2023-02-27T22:12:22.002Z,-2.20
2023-02-27T22:15:24.197Z,-2.23
2023-02-27T22:18:26.969Z,-1.94
2023-02-27T22:21:29.366Z,-2.16
2023-02-27T22:24:31.786Z,-2.15
2023-02-27T22:27:33.970Z,-2.28
2023-02-27T22:30:36.270Z,-2.49
2023-02-27T22:33:39.673Z,-2.37
2023-02-27T22:36:41.906Z,-2.09
2023-02-27T22:39:44.109Z,-1.94
2023-02-27T22:42:48.037Z,-2.08
2023-02-27T22:45:50.447Z,-2.44
2023-02-27T22:49:01.142Z,-2.36
2023-02-27T22:52:03.477Z,-2.32
2023-02-27T22:55:06.240Z,-2.36
2023-02-27T22:58:08.387Z,-2.33
2023-02-27T23:01:22.011Z,-2.28
2023-02-27T23:04:24.272Z,-2.32
2023-02-27T23:07:26.632Z,-2.01
2023-02-27T23:10:28.783Z,-2.13
2023-02-27T23:13:32.182Z,-2.27
2023-02-27T23:16:34.532Z,-2.23
2023-02-27T23:19:36.738Z,-2.04
2023-02-27T23:22:38.912Z,-2.23
2023-02-27T23:25:41.206Z,-2.37
2023-02-27T23:28:43.416Z,-2.10
2023-02-27T23:31:45.746Z,-1.62
2023-02-27T23:34:49.847Z,-1.58
2023-02-27T23:37:56.659Z,-1.71
2023-02-27T23:41:05.089Z,-1.95
2023-02-27T23:44:07.313Z,-2.14
2023-02-27T23:47:09.494Z,-2.26
2023-02-27T23:50:12.514Z,-2.25
2023-02-27T23:53:15.082Z,-2.50
2023-02-27T23:56:21.632Z,-2.67
2023-02-27T23:59:23.796Z,-2.68
